createdAt,value
2022-09-05T00:00:15.087Z,18.10
2022-09-05T00:02:57.102Z,18.00
2022-09-05T00:05:50.980Z,18.00
2022-09-05T03:08:41.683Z,16.30
2022-09-05T03:15:46.405Z,16.20
2022-09-05T03:18:20.872Z,16.20
2022-09-05T03:21:15.390Z,16.20
2022-09-05T03:24:19.845Z,16.20
2022-09-05T03:27:14.081Z,16.10
2022-09-05T03:30:17.592Z,16.10
2022-09-05T03:33:03.365Z,16.00
2022-09-05T03:35:36.487Z,16.00
2022-09-05T03:38:34.620Z,16.00
2022-09-05T03:41:23.889Z,16.00
2022-09-05T03:44:21.949Z,16.00
2022-09-05T03:47:07.437Z,16.00
2022-09-05T03:54:06.996Z,16.10
2022-09-05T03:57:07.616Z,16.20
2022-09-05T03:57:15.710Z,16.30
2022-09-05T03:59:26.280Z,16.20
2022-09-05T04:03:35.849Z,16.20
2022-09-05T04:08:31.819Z,16.20
2022-09-05T04:08:34.287Z,16.10
2022-09-05T04:11:14.328Z,16.10
2022-09-05T04:18:44.037Z,16.00
2022-09-05T04:21:23.538Z,16.00
2022-09-05T04:24:02.878Z,16.10
2022-09-05T04:27:11.803Z,16.00
2022-09-05T04:29:57.573Z,15.90
2022-09-05T04:32:54.793Z,15.90
2022-09-05T04:35:53.502Z,15.90
2022-09-05T04:38:41.974Z,15.80
2022-09-05T04:41:39.197Z,15.90
2022-09-05T04:44:22.528Z,15.80
2022-09-05T04:47:01.100Z,15.70
2022-09-05T04:49:40.105Z,15.70
2022-09-05T04:52:08.000Z,15.80
2022-09-05T04:55:16.059Z,15.80
2022-09-05T04:58:13.560Z,15.80
2022-09-05T05:06:02.543Z,15.70
2022-09-05T05:06:10.493Z,15.80
2022-09-05T05:06:46.170Z,15.90
2022-09-05T05:09:44.885Z,15.90
2022-09-05T05:18:14.229Z,15.90
2022-09-05T05:20:41.776Z,16.00
2022-09-05T05:23:20.259Z,16.00
2022-09-05T05:26:10.931Z,16.00
2022-09-05T05:29:19.631Z,16.10
2022-09-05T05:31:57.774Z,16.10
2022-09-05T05:34:36.778Z,16.20
2022-09-05T05:37:32.689Z,16.40
2022-09-05T05:40:16.874Z,16.40
2022-09-05T05:42:52.291Z,16.50
2022-09-05T05:45:29.396Z,16.50
2022-09-05T05:48:24.627Z,16.50
2022-09-05T05:51:50.330Z,16.50
2022-09-05T05:54:45.875Z,16.50
2022-09-05T06:15:05.524Z,17.00
2022-09-05T06:18:34.876Z,17.20
2022-09-05T06:22:11.280Z,17.30
2022-09-05T06:24:23.117Z,17.40
2022-09-05T06:27:21.091Z,17.50
2022-09-05T06:29:57.828Z,17.50
2022-09-05T06:32:58.641Z,17.50
2022-09-05T06:36:12.060Z,17.60
2022-09-05T06:39:06.533Z,17.60
2022-09-05T06:42:04.325Z,17.60
2022-09-05T06:45:27.484Z,17.60
2022-09-05T06:48:44.729Z,17.60
2022-09-05T06:52:06.832Z,17.70
2022-09-05T06:55:01.832Z,17.80
2022-09-05T06:58:44.990Z,17.80
2022-09-05T07:01:20.894Z,17.90
2022-09-05T07:04:33.296Z,18.00
2022-09-05T07:07:10.870Z,18.10
2022-09-05T07:09:53.802Z,18.20
2022-09-05T07:12:32.850Z,18.20
2022-09-05T07:15:09.366Z,18.40
2022-09-05T07:18:10.944Z,18.50
2022-09-05T07:21:26.807Z,18.60
2022-09-05T07:24:09.216Z,18.80
2022-09-05T07:26:53.693Z,19.00
2022-09-05T07:29:40.615Z,19.10
2022-09-05T07:32:24.428Z,19.20
2022-09-05T07:35:01.549Z,19.40
2022-09-05T07:37:45.298Z,19.60
2022-09-05T07:40:26.675Z,19.80
2022-09-05T07:43:09.900Z,20.00
2022-09-05T07:45:57.536Z,20.30
2022-09-05T07:48:34.833Z,20.50
2022-09-05T07:56:49.350Z,20.40
2022-09-05T07:57:15.733Z,20.50
2022-09-05T08:01:48.881Z,20.70
2022-09-05T08:04:42.396Z,20.80
2022-09-05T08:07:48.926Z,20.70
2022-09-05T08:10:17.104Z,20.80
2022-09-05T08:13:24.282Z,20.80
2022-09-05T08:16:13.087Z,20.90
2022-09-05T08:18:57.861Z,20.90
2022-09-05T08:21:51.546Z,21.00
2022-09-05T08:24:32.137Z,21.20
2022-09-05T08:27:06.006Z,21.30
2022-09-05T08:29:51.302Z,21.50
2022-09-05T08:33:11.078Z,21.60
2022-09-05T08:35:53.092Z,21.90
2022-09-05T08:38:38.758Z,22.20
2022-09-05T08:41:50.368Z,22.40
2022-09-05T08:46:40.131Z,22.50
2022-09-05T08:48:05.787Z,23.10
2022-09-05T08:50:48.199Z,23.90
2022-09-05T08:53:48.434Z,24.70
2022-09-05T08:56:32.638Z,26.00
2022-09-05T09:03:52.128Z,27.20
2022-09-05T09:06:28.103Z,27.80
2022-09-05T09:09:25.940Z,27.90
2022-09-05T09:12:46.840Z,28.00
2022-09-05T09:15:51.289Z,28.40
2022-09-05T09:18:20.406Z,29.30
2022-09-05T09:21:05.457Z,29.30
2022-09-05T09:24:02.027Z,29.30
2022-09-05T09:26:42.802Z,29.70
2022-09-05T09:29:14.031Z,30.80
2022-09-05T09:32:10.735Z,30.70
2022-09-05T09:35:00.169Z,30.50
2022-09-05T09:37:54.338Z,30.30
2022-09-05T09:41:05.340Z,30.40
2022-09-05T09:43:54.115Z,30.10
2022-09-05T09:46:39.477Z,29.60
2022-09-05T09:49:41.022Z,29.40
2022-09-05T09:52:22.819Z,29.10
2022-09-05T09:55:02.414Z,28.90
2022-09-05T09:57:58.941Z,29.40
2022-09-05T10:10:46.919Z,31.50
2022-09-05T10:10:52.398Z,30.80
2022-09-05T10:12:17.162Z,31.40
2022-09-05T10:14:55.555Z,31.40
2022-09-05T10:18:17.493Z,31.70
2022-09-05T10:21:25.516Z,32.20
2022-09-05T10:24:31.591Z,32.60
2022-09-05T10:27:26.429Z,32.80
2022-09-05T10:30:25.320Z,32.30
2022-09-05T10:35:23.203Z,32.70
2022-09-05T10:36:40.625Z,32.80
2022-09-05T10:39:20.386Z,33.00
2022-09-05T10:42:05.389Z,33.00
2022-09-05T10:44:45.734Z,32.80
2022-09-05T10:47:39.559Z,33.10
2022-09-05T10:50:26.031Z,33.40
2022-09-05T10:53:21.862Z,33.20
2022-09-05T10:56:32.749Z,33.20
2022-09-05T11:02:16.159Z,33.60
2022-09-05T11:10:19.361Z,34.00
2022-09-05T11:13:13.308Z,34.50
2022-09-05T11:15:44.037Z,34.50
2022-09-05T11:18:56.252Z,34.20
2022-09-05T11:22:19.923Z,33.80
2022-09-05T11:24:41.326Z,33.40
2022-09-05T11:27:27.116Z,33.60
2022-09-05T11:29:56.984Z,33.80
2022-09-05T11:36:06.857Z,33.90
2022-09-05T11:39:54.234Z,34.00
2022-09-05T11:40:26.311Z,34.50
2022-09-05T11:42:24.366Z,34.80
2022-09-05T11:45:18.639Z,34.30
2022-09-05T11:48:24.276Z,34.50
2022-09-05T11:51:03.509Z,33.70
2022-09-05T11:53:45.265Z,33.60
2022-09-05T11:56:49.932Z,33.40
2022-09-05T11:59:47.607Z,33.70
2022-09-05T12:02:38.687Z,34.40
2022-09-05T12:05:49.441Z,34.80
2022-09-05T12:11:44.818Z,35.40
2022-09-05T12:14:55.113Z,35.50
2022-09-05T12:17:47.768Z,35.80
2022-09-05T12:20:46.011Z,35.80
2022-09-05T12:23:53.696Z,35.60
2022-09-05T12:27:41.161Z,35.00
2022-09-05T12:30:22.046Z,35.10
2022-09-05T12:36:01.402Z,35.30
2022-09-05T12:39:59.557Z,35.60
2022-09-05T12:41:32.699Z,35.80
2022-09-05T12:42:10.388Z,35.50
2022-09-05T12:44:36.247Z,35.60
2022-09-05T12:46:33.406Z,35.40
2022-09-05T12:49:07.231Z,35.20
2022-09-05T12:51:48.979Z,35.00
2022-09-05T12:55:03.494Z,34.80
2022-09-05T13:01:58.542Z,34.00
2022-09-05T13:03:07.415Z,33.00
2022-09-05T13:04:13.795Z,32.50
2022-09-05T13:06:41.546Z,32.50
2022-09-05T13:09:19.684Z,33.50
2022-09-05T13:14:56.827Z,34.20
2022-09-05T13:15:36.993Z,34.80
2022-09-05T13:18:31.328Z,35.60
2022-09-05T13:21:54.453Z,35.90
2022-09-05T13:24:33.115Z,35.90
2022-09-05T13:26:59.941Z,35.90
2022-09-05T13:31:21.194Z,35.70
2022-09-05T13:37:59.805Z,35.70
2022-09-05T13:38:19.752Z,35.50
2022-09-05T13:39:01.194Z,35.60
2022-09-05T13:41:38.499Z,35.90
2022-09-05T13:44:26.535Z,36.10
2022-09-05T13:47:09.058Z,35.20
2022-09-05T13:50:19.999Z,34.30
2022-09-05T13:52:53.501Z,33.60
2022-09-05T13:55:38.042Z,33.90
2022-09-05T13:58:11.856Z,34.20
2022-09-05T14:00:55.968Z,34.70
2022-09-05T14:03:40.233Z,34.60
2022-09-05T14:06:47.504Z,33.50
2022-09-05T14:09:50.126Z,32.60
2022-09-05T14:12:38.649Z,32.20
2022-09-05T14:15:32.771Z,31.90
2022-09-05T14:18:24.542Z,32.00
2022-09-05T14:25:48.662Z,32.70
2022-09-05T14:28:40.925Z,33.70
2022-09-05T14:36:14.998Z,34.90
2022-09-05T14:37:48.384Z,35.50
2022-09-05T14:38:04.142Z,36.00
2022-09-05T14:40:39.168Z,36.10
2022-09-05T14:43:23.279Z,36.60
2022-09-05T14:46:09.151Z,36.80
2022-09-05T14:48:45.989Z,37.20
2022-09-05T14:51:39.750Z,37.60
2022-09-05T15:00:44.480Z,37.90
2022-09-05T15:03:00.681Z,37.40
2022-09-05T15:03:04.274Z,36.60
2022-09-05T15:05:35.792Z,36.20
2022-09-05T15:08:30.554Z,36.10
2022-09-05T15:12:21.592Z,35.90
2022-09-05T15:14:12.388Z,36.00
2022-09-05T15:16:45.685Z,36.30
2022-09-05T15:20:06.521Z,36.60
2022-09-05T15:23:30.605Z,36.70
2022-09-05T15:26:05.449Z,36.40
2022-09-05T15:28:41.076Z,36.00
2022-09-05T15:31:11.123Z,36.40
2022-09-05T15:33:40.806Z,36.50
2022-09-05T15:36:13.438Z,36.50
2022-09-05T15:38:54.885Z,36.60
2022-09-05T15:41:30.336Z,36.80
2022-09-05T15:44:09.280Z,36.90
2022-09-05T15:46:51.381Z,36.90
2022-09-05T15:49:39.292Z,36.70
2022-09-05T15:52:18.519Z,36.80
2022-09-05T15:54:51.705Z,36.80
2022-09-05T15:57:23.824Z,36.80
2022-09-05T15:59:54.549Z,36.90
2022-09-05T16:02:26.948Z,36.80
2022-09-05T16:10:39.105Z,37.20
2022-09-05T16:10:50.117Z,37.20
2022-09-05T16:11:57.894Z,36.60
2022-09-05T16:14:26.700Z,35.60
2022-09-05T16:23:13.887Z,34.90
2022-09-05T16:23:29.698Z,34.00
2022-09-05T16:23:41.765Z,33.20
2022-09-05T16:26:32.111Z,32.70
2022-09-05T16:29:01.677Z,32.30
2022-09-05T16:31:28.647Z,31.90
2022-09-05T16:33:55.982Z,31.90
2022-09-05T16:36:34.200Z,31.90
2022-09-05T16:39:15.977Z,31.90
2022-09-05T16:41:53.704Z,31.50
2022-09-05T16:44:32.432Z,31.30
2022-09-05T16:47:23.403Z,31.10
2022-09-05T16:49:57.334Z,30.80
2022-09-05T16:52:39.778Z,30.60
2022-09-05T16:55:37.703Z,30.70
2022-09-05T16:58:18.308Z,30.40
2022-09-05T17:00:54.177Z,30.40
2022-09-05T17:04:03.089Z,30.40
2022-09-05T17:07:02.297Z,30.60
2022-09-05T17:09:43.848Z,30.60
2022-09-05T17:12:19.061Z,30.50
2022-09-05T17:15:08.447Z,30.40
2022-09-05T17:18:18.993Z,30.40
2022-09-05T17:20:37.069Z,30.30
2022-09-05T17:29:40.658Z,29.80
2022-09-05T17:33:45.052Z,29.10
2022-09-05T17:36:22.449Z,29.00
2022-09-05T17:39:18.954Z,28.80
2022-09-05T17:42:14.020Z,28.50
2022-09-05T17:44:50.691Z,28.30
2022-09-05T17:47:35.450Z,28.10
2022-09-05T17:50:20.278Z,28.00
2022-09-05T17:52:59.733Z,27.80
2022-09-05T17:55:49.287Z,27.60
2022-09-05T17:58:49.224Z,27.50
2022-09-05T18:01:26.623Z,27.40
2022-09-05T18:03:55.506Z,27.20
2022-09-05T18:06:59.185Z,27.10
2022-09-05T18:09:40.002Z,26.90
2022-09-05T18:13:14.329Z,26.70
2022-09-05T18:15:38.404Z,26.60
2022-09-05T18:18:20.570Z,26.40
2022-09-05T18:24:50.221Z,26.10
2022-09-05T18:28:03.626Z,25.90
2022-09-05T18:30:18.526Z,25.90
2022-09-05T18:33:31.942Z,25.70
2022-09-05T18:35:54.107Z,25.70
2022-09-05T18:38:49.845Z,25.50
2022-09-05T18:41:24.858Z,25.40
2022-09-05T18:44:13.596Z,25.40
2022-09-05T18:46:53.774Z,25.20
2022-09-05T18:50:23.332Z,25.10
2022-09-05T18:52:26.153Z,25.00
2022-09-05T18:56:10.991Z,24.80
2022-09-05T18:58:03.494Z,24.80
2022-09-05T19:00:44.041Z,24.70
2022-09-05T19:03:30.461Z,24.60
2022-09-05T19:06:35.155Z,24.60
2022-09-05T19:08:58.559Z,24.50
2022-09-05T19:11:37.917Z,24.40
2022-09-05T19:14:38.407Z,24.20
2022-09-05T19:17:20.728Z,24.20
2022-09-05T19:20:34.212Z,24.20
2022-09-05T19:32:15.676Z,24.00
2022-09-05T19:36:49.131Z,23.50
2022-09-05T19:36:58.095Z,23.90
2022-09-05T19:37:08.885Z,23.70
2022-09-05T19:45:48.909Z,23.50
2022-09-05T19:47:30.684Z,23.40
2022-09-05T19:47:37.386Z,23.30
2022-09-05T19:51:17.470Z,23.20
2022-09-05T19:54:04.569Z,23.30
2022-09-05T19:56:44.980Z,23.20
2022-09-05T19:59:35.327Z,23.20
2022-09-05T20:02:04.255Z,22.90
2022-09-05T20:04:36.792Z,22.90
2022-09-05T20:07:33.496Z,22.70
2022-09-05T20:10:03.902Z,22.70
2022-09-05T20:12:36.247Z,22.60
2022-09-05T20:15:35.826Z,22.70
2022-09-05T20:18:34.128Z,22.70
2022-09-05T20:21:14.263Z,22.50
2022-09-05T20:24:37.972Z,22.30
2022-09-05T20:27:05.045Z,22.30
2022-09-05T20:29:55.114Z,22.30
2022-09-05T20:32:38.858Z,22.40
2022-09-05T20:37:22.687Z,22.20
2022-09-05T20:43:15.405Z,22.20
2022-09-05T20:43:36.453Z,22.10
2022-09-05T20:44:19.237Z,22.10
2022-09-05T20:54:04.692Z,22.00
2022-09-05T20:54:13.743Z,21.90
2022-09-05T20:54:25.870Z,21.80
2022-09-05T20:56:28.111Z,21.90
2022-09-05T20:58:58.705Z,21.80
2022-09-05T21:01:27.113Z,21.70
2022-09-05T21:04:00.274Z,21.70
2022-09-05T21:06:35.414Z,21.60
2022-09-05T21:09:24.996Z,21.50
2022-09-05T21:11:56.076Z,21.50
2022-09-05T21:14:26.631Z,21.40
2022-09-05T21:17:15.040Z,21.40
2022-09-05T21:19:45.012Z,21.40
2022-09-05T21:22:21.328Z,21.20
2022-09-05T21:25:44.542Z,21.10
2022-09-05T21:28:36.740Z,21.00
2022-09-05T21:31:08.825Z,21.00
2022-09-05T21:33:45.084Z,21.00
2022-09-05T21:36:15.288Z,21.00
2022-09-05T21:38:43.281Z,21.00
2022-09-05T21:41:10.771Z,20.90
2022-09-05T21:47:35.654Z,21.00
2022-09-05T21:47:46.514Z,21.00
2022-09-05T21:49:18.965Z,20.90
2022-09-05T21:51:53.218Z,20.70
2022-09-05T21:59:17.321Z,20.60
2022-09-05T21:59:18.059Z,20.60
2022-09-05T22:00:13.060Z,20.70
2022-09-05T22:02:40.242Z,20.80
2022-09-05T22:05:07.472Z,20.60
2022-09-05T22:07:37.159Z,20.60
2022-09-05T22:10:06.541Z,20.50
2022-09-05T22:12:36.030Z,20.50
2022-09-05T22:15:27.695Z,20.50
2022-09-05T22:18:17.474Z,20.50
2022-09-05T22:20:55.860Z,20.40
2022-09-05T22:23:36.739Z,20.40
2022-09-05T22:27:12.362Z,20.40
2022-09-05T22:29:40.426Z,20.30
2022-09-05T22:32:07.813Z,20.20
2022-09-05T22:34:34.612Z,20.20
2022-09-05T22:37:01.581Z,20.10
2022-09-05T22:39:37.819Z,20.00
2022-09-05T22:42:10.313Z,20.00
2022-09-05T22:44:41.888Z,20.00
2022-09-05T22:47:10.098Z,20.00
2022-09-05T22:49:37.642Z,20.00
2022-09-05T22:52:06.549Z,20.00
2022-09-05T22:54:34.237Z,19.90
2022-09-05T22:57:01.795Z,19.90
2022-09-05T22:59:29.166Z,19.80
2022-09-05T23:01:56.169Z,19.80
2022-09-05T23:04:23.681Z,19.70
2022-09-05T23:06:50.686Z,19.70
2022-09-05T23:09:17.606Z,19.80
2022-09-05T23:11:44.411Z,19.80
2022-09-05T23:14:11.251Z,19.70
2022-09-05T23:16:38.079Z,19.80
2022-09-05T23:19:04.950Z,19.70
2022-09-05T23:21:31.879Z,19.80
2022-09-05T23:23:58.822Z,19.80
2022-09-05T23:27:22.291Z,19.70
2022-09-05T23:29:49.075Z,19.60
2022-09-05T23:32:15.978Z,19.60
2022-09-05T23:34:42.994Z,19.60
2022-09-05T23:37:09.959Z,19.60
2022-09-05T23:39:36.916Z,19.60
2022-09-05T23:42:03.999Z,19.70
2022-09-05T23:50:36.005Z,19.60
2022-09-05T23:53:04.836Z,19.70
2022-09-05T23:55:32.784Z,19.80
2022-09-05T23:57:59.852Z,19.80
